Terminal Aerodrome Forecast
Issued by NWS

Home | Current Version | Previous Version | Text Only | Print | Product List | Glossary On
Versions: 1 2 3 4 5 6 7 8 9 10 11 12 13 14
000
FTUS43 KFGF 240643 AAA
TAFTVF
TAF AMD
KTVF 240643Z 2407/2506 14009KT P6SM BKN070
     FM241100 15009KT P6SM SCT060 BKN200
     FM241400 17011KT P6SM SCT060 BKN250
     FM250500 20007KT P6SM FEW050 SCT200=

USA.gov is the U.S. government's official web portal to all federal, state and local government web resources and services.